createdAt,value
2018-02-18T00:00:25.592Z,81.68
2018-02-18T00:01:06.046Z,80.83
2018-02-18T00:01:46.461Z,80.93
2018-02-18T00:02:26.870Z,81.12
2018-02-18T00:03:07.226Z,80.55
2018-02-18T00:03:47.686Z,79.69
2018-02-18T00:04:28.066Z,80.07
2018-02-18T00:05:08.536Z,80.74
2018-02-18T00:05:48.889Z,81.3
2018-02-18T00:06:29.226Z,81.96
2018-02-18T00:07:09.598Z,81.49
2018-02-18T00:07:50.102Z,81.68
2018-02-18T00:08:30.491Z,81.68
2018-02-18T00:09:10.789Z,81.68
2018-02-18T00:09:51.233Z,81.12
2018-02-18T00:10:31.658Z,80.93
2018-02-18T00:11:11.978Z,82.15
2018-02-18T00:11:52.377Z,82.63
2018-02-18T00:12:32.776Z,81.96
2018-02-18T00:13:13.230Z,82.63
2018-02-18T00:13:53.645Z,82.34
2018-02-18T00:14:34.102Z,83.01
2018-02-18T00:15:14.421Z,81.77
2018-02-18T00:15:54.914Z,81.3
2018-02-18T00:16:35.310Z,80.55
2018-02-18T00:17:15.707Z,80.64
2018-02-18T00:17:56.091Z,80.45
2018-02-18T00:18:36.538Z,80.26
2018-02-18T00:19:17.002Z,80.36
2018-02-18T00:19:57.264Z,81.12
2018-02-18T00:20:37.682Z,80.36
2018-02-18T00:21:18.207Z,80.07
2018-02-18T00:21:58.515Z,80.74
2018-02-18T00:22:38.905Z,81.96
2018-02-18T00:23:19.307Z,83.1
2018-02-18T00:23:59.876Z,82.44
2018-02-18T00:24:40.387Z,82.06
2018-02-18T00:25:20.720Z,82.06
2018-02-18T00:26:01.147Z,81.87
2018-02-18T00:26:41.506Z,81.3
2018-02-18T00:27:21.890Z,82.15
2018-02-18T00:28:02.269Z,81.3
2018-02-18T00:28:42.709Z,80.36
2018-02-18T00:29:23.126Z,81.02
2018-02-18T00:30:03.402Z,80.93
2018-02-18T00:30:43.865Z,81.87
2018-02-18T00:31:24.332Z,81.96
2018-02-18T00:32:04.649Z,82.63
2018-02-18T00:32:45.123Z,82.53
2018-02-18T00:33:25.460Z,82.15
2018-02-18T00:34:05.858Z,81.49
2018-02-18T00:34:46.184Z,81.59
2018-02-18T00:35:26.654Z,80.93
2018-02-18T00:36:07.097Z,80.64
2018-02-18T00:36:47.466Z,81.49
2018-02-18T00:37:27.890Z,81.87
2018-02-18T00:38:08.236Z,81.49
2018-02-18T00:38:48.662Z,80.93
2018-02-18T00:39:29.079Z,80.07
2018-02-18T00:40:09.393Z,79.69
2018-02-18T00:40:49.757Z,79.88
2018-02-18T00:41:30.239Z,81.02
2018-02-18T00:42:10.650Z,80.83
2018-02-18T00:42:51.116Z,81.3
2018-02-18T00:43:31.521Z,81.68
2018-02-18T00:44:11.962Z,81.96
2018-02-18T00:44:52.329Z,81.68
2018-02-18T00:45:32.831Z,80.83
2018-02-18T00:46:13.158Z,80.83
2018-02-18T00:46:53.571Z,81.3
2018-02-18T00:47:33.927Z,80.93
2018-02-18T00:48:14.327Z,81.49
2018-02-18T00:48:54.766Z,81.49
2018-02-18T00:49:35.104Z,83.01
2018-02-18T00:50:15.525Z,83.29
2018-02-18T00:50:55.971Z,83.1
2018-02-18T00:51:36.373Z,83.01
2018-02-18T00:52:16.712Z,82.63
2018-02-18T00:52:57.124Z,81.59
2018-02-18T00:53:37.529Z,81.49
2018-02-18T00:54:17.887Z,82.06
2018-02-18T00:54:58.324Z,82.06
2018-02-18T00:55:38.766Z,81.49
2018-02-18T00:56:19.130Z,80.83
2018-02-18T00:56:59.569Z,80.83
2018-02-18T00:57:39.923Z,80.45
2018-02-18T00:58:20.448Z,80.64
2018-02-18T00:59:00.721Z,81.68
2018-02-18T00:59:41.122Z,80.83
2018-02-18T01:00:21.633Z,81.59
2018-02-18T01:01:01.923Z,81.02
2018-02-18T01:01:42.371Z,80.93
2018-02-18T01:02:22.795Z,81.02
2018-02-18T01:03:03.143Z,80.36
2018-02-18T01:03:43.599Z,79.74
2018-02-18T01:04:23.960Z,79.22
2018-02-18T01:05:04.365Z,79.13
2018-02-18T01:05:44.811Z,79.03
2018-02-18T01:06:25.174Z,79.69
2018-02-18T01:07:05.526Z,79.5
2018-02-18T01:07:45.934Z,79.79
2018-02-18T01:08:26.403Z,80.55
2018-02-18T01:09:06.829Z,80.55
2018-02-18T01:09:47.107Z,80.83
2018-02-18T01:10:27.526Z,81.68
2018-02-18T01:11:07.933Z,80.55
2018-02-18T01:11:48.349Z,79.79
2018-02-18T01:12:28.806Z,79.69
2018-02-18T01:13:09.229Z,79.13
2018-02-18T01:13:49.574Z,79.69
2018-02-18T01:14:29.905Z,80.36
2018-02-18T01:15:10.264Z,80.93
2018-02-18T01:15:50.715Z,81.3
2018-02-18T01:16:31.186Z,81.4
2018-02-18T01:17:11.560Z,81.02
2018-02-18T01:17:51.927Z,80.83
2018-02-18T01:18:32.330Z,80.26
2018-02-18T01:19:12.741Z,80.26
2018-02-18T01:19:53.129Z,80.64
2018-02-18T01:20:33.527Z,80.45
2018-02-18T01:21:13.903Z,80.36
2018-02-18T01:21:54.416Z,80.11
2018-02-18T01:22:34.794Z,80.3
2018-02-18T01:23:15.256Z,79.64
2018-02-18T01:23:55.661Z,78.79
2018-02-18T01:24:36.004Z,78.98
2018-02-18T01:25:16.356Z,78.69
2018-02-18T01:25:56.837Z,78.03
2018-02-18T01:26:37.409Z,78.13
2018-02-18T01:27:17.775Z,78.13
2018-02-18T01:27:58.154Z,78.22
2018-02-18T01:28:38.651Z,78.31
2018-02-18T01:29:19.573Z,77.56
2018-02-18T01:30:00.043Z,77.89
2018-02-18T01:30:40.448Z,78.18
2018-02-18T01:31:20.821Z,78.27
2018-02-18T01:32:01.188Z,78.27
2018-02-18T01:32:41.662Z,78.08
2018-02-18T01:33:22.007Z,77.99
2018-02-18T01:34:02.387Z,78.94
2018-02-18T01:34:42.853Z,79.6
2018-02-18T01:35:23.195Z,79.69
2018-02-18T01:36:03.613Z,79.98
2018-02-18T01:36:44.143Z,79.69
2018-02-18T01:37:24.573Z,79.6
2018-02-18T01:38:05.035Z,79.69
2018-02-18T01:38:45.399Z,79.5
2018-02-18T01:39:25.824Z,79.32
2018-02-18T01:40:06.165Z,80.07
2018-02-18T01:40:46.607Z,80.07
2018-02-18T01:41:27.125Z,80.17
2018-02-18T01:42:07.673Z,80.36
2018-02-18T01:42:47.985Z,81.12
2018-02-18T01:43:28.427Z,81.49
2018-02-18T01:44:08.638Z,81.21
2018-02-18T01:44:49.264Z,81.49
2018-02-18T01:45:29.792Z,81.77
2018-02-18T01:46:10.042Z,80.83
2018-02-18T01:46:50.462Z,80.93
2018-02-18T01:47:31.097Z,80.64
2018-02-18T01:48:11.307Z,81.02
2018-02-18T01:48:51.815Z,81.49
2018-02-18T01:49:32.349Z,82.44
2018-02-18T01:50:12.856Z,82.53
2018-02-18T01:50:53.245Z,82.53
2018-02-18T01:51:33.739Z,83.01
2018-02-18T01:52:14.152Z,83.01
2018-02-18T01:52:54.540Z,82.01
2018-02-18T01:53:34.949Z,80.93
2018-02-18T01:54:15.495Z,80.02
2018-02-18T01:54:55.911Z,79.03
2018-02-18T01:55:36.320Z,78.85
2018-02-18T01:56:16.773Z,78.37
2018-02-18T01:56:57.211Z,77.99
2018-02-18T01:57:37.658Z,78.37
2018-02-18T01:58:18.090Z,78.75
2018-02-18T01:58:58.568Z,78.56
2018-02-18T01:59:38.942Z,78.65
2018-02-18T02:00:19.327Z,79.22
2018-02-18T02:00:59.846Z,79.88
2018-02-18T02:01:40.404Z,80.55
2018-02-18T02:02:20.922Z,80.64
2018-02-18T02:03:01.190Z,80.93
2018-02-18T02:03:41.640Z,80.55
2018-02-18T02:04:22.100Z,80.07
2018-02-18T02:05:02.481Z,79.41
2018-02-18T02:05:43.089Z,79.22
2018-02-18T02:06:23.490Z,78.56
2018-02-18T02:07:03.973Z,78.46
2018-02-18T02:07:44.465Z,79.88
2018-02-18T02:08:24.882Z,79.69
2018-02-18T02:09:05.364Z,79.6
2018-02-18T02:09:45.716Z,80.45
2018-02-18T02:10:26.160Z,80.17
2018-02-18T02:11:06.540Z,79.41
2018-02-18T02:11:46.979Z,79.98
2018-02-18T02:12:27.378Z,79.03
2018-02-18T02:13:07.957Z,78.94
2018-02-18T02:13:48.408Z,80.45
2018-02-18T02:14:28.778Z,80.93
2018-02-18T02:15:09.395Z,80.83
2018-02-18T02:15:49.695Z,80.64
2018-02-18T02:16:30.534Z,80.55
2018-02-18T02:17:10.821Z,80.13
2018-02-18T02:17:51.371Z,81.45
2018-02-18T02:18:31.824Z,82.12
2018-02-18T02:19:12.387Z,81.74
2018-02-18T02:19:52.700Z,82.02
2018-02-18T02:20:33.238Z,81.26
2018-02-18T02:21:13.621Z,81.93
2018-02-18T02:21:54.045Z,82.5
2018-02-18T02:22:34.448Z,81.74
2018-02-18T02:23:14.903Z,82.59
2018-02-18T02:23:55.306Z,82.68
2018-02-18T02:24:35.694Z,82.31
2018-02-18T02:25:16.193Z,82.31
2018-02-18T02:25:56.485Z,82.12
2018-02-18T02:26:36.992Z,82.97
2018-02-18T02:27:17.583Z,83.44
2018-02-18T02:27:57.989Z,84.01
2018-02-18T02:28:38.374Z,84.58
2018-02-18T02:29:18.737Z,84.29
2018-02-18T02:29:59.252Z,85.24
2018-02-18T02:30:39.625Z,84.1
2018-02-18T02:31:20.178Z,83.25
2018-02-18T02:32:00.439Z,83.34
2018-02-18T02:32:41.022Z,83.63
2018-02-18T02:33:21.471Z,84.1
2018-02-18T02:34:01.849Z,83.34
2018-02-18T02:34:42.303Z,83.25
2018-02-18T02:35:22.805Z,83.63
2018-02-18T02:36:03.241Z,83.25
2018-02-18T02:36:43.802Z,83.34
2018-02-18T02:37:24.114Z,83.63
2018-02-18T02:38:04.580Z,83.06
2018-02-18T02:38:44.983Z,82.87
2018-02-18T02:39:25.544Z,83.25
2018-02-18T02:40:05.973Z,83.25
2018-02-18T02:40:46.923Z,83.44
2018-02-18T02:41:26.780Z,83.72
2018-02-18T02:42:07.247Z,83.34
2018-02-18T02:42:48.056Z,83.53
2018-02-18T02:43:28.375Z,84.58
2018-02-18T02:44:08.836Z,84.29
2018-02-18T02:44:49.166Z,84.1
2018-02-18T02:45:29.679Z,84.29
2018-02-18T02:46:10.313Z,84.58
2018-02-18T02:46:50.793Z,84.1
2018-02-18T02:47:31.075Z,83.44
2018-02-18T02:48:11.495Z,83.44
2018-02-18T02:48:52.033Z,82.59
2018-02-18T02:49:32.503Z,82.5
2018-02-18T02:50:13.035Z,82.87
2018-02-18T02:50:53.545Z,81.93
2018-02-18T02:51:33.937Z,81.64
2018-02-18T02:52:14.331Z,81.74
2018-02-18T02:52:54.969Z,80.83
2018-02-18T02:53:35.494Z,80.45
2018-02-18T02:54:15.885Z,81.49
2018-02-18T02:54:56.220Z,80.74
2018-02-18T02:55:36.769Z,80.36
2018-02-18T02:56:17.179Z,81.12
2018-02-18T02:56:57.723Z,80.07
2018-02-18T02:57:38.188Z,79.6
2018-02-18T02:58:18.833Z,78.94
2018-02-18T02:58:59.303Z,78.56
2018-02-18T02:59:39.872Z,78.56
2018-02-18T03:00:20.222Z,79.32
2018-02-18T03:01:00.937Z,78.46
2018-02-18T03:01:41.367Z,78.56
2018-02-18T03:02:21.776Z,77.7
2018-02-18T03:03:02.381Z,78.37
2018-02-18T03:03:43.083Z,79.88
2018-02-18T03:04:23.624Z,81.3
2018-02-18T03:05:04.090Z,81.12
2018-02-18T03:05:44.708Z,80.83
2018-02-18T03:06:25.184Z,79.5
2018-02-18T03:07:05.693Z,78.94
2018-02-18T03:07:46.078Z,78.08
2018-02-18T03:08:26.661Z,78.65
2018-02-18T03:09:07.137Z,78.56
2018-02-18T03:09:47.540Z,79.5
2018-02-18T03:10:27.982Z,79.88
2018-02-18T03:11:08.564Z,79.69
2018-02-18T03:11:48.949Z,80.26
2018-02-18T03:12:29.613Z,80.64
2018-02-18T03:13:10.035Z,79.41
2018-02-18T03:13:50.534Z,77.8
2018-02-18T03:14:30.933Z,77.99
2018-02-18T03:15:11.617Z,77.7
2018-02-18T03:15:52.171Z,78.18
2018-02-18T03:16:32.771Z,78.08
2018-02-18T03:17:13.232Z,78.37
2018-02-18T03:17:53.737Z,78.75
2018-02-18T03:18:34.218Z,79.79
2018-02-18T03:19:14.598Z,80.17
2018-02-18T03:19:55.290Z,80.64
2018-02-18T03:20:35.742Z,79.69
2018-02-18T03:21:16.175Z,79.6
2018-02-18T03:21:56.568Z,79.13
2018-02-18T03:22:37.191Z,79.98
2018-02-18T03:23:17.717Z,78.71
2018-02-18T03:23:58.220Z,78.71
2018-02-18T03:24:38.702Z,79.98
2018-02-18T03:25:19.240Z,80.69
2018-02-18T03:25:59.837Z,80.04
2018-02-18T03:26:40.096Z,80.32
2018-02-18T03:27:20.655Z,80.32
2018-02-18T03:28:01.100Z,79.66
2018-02-18T03:28:41.593Z,80.32
2018-02-18T03:29:22.527Z,80.04
2018-02-18T03:30:02.994Z,80.6
2018-02-18T03:30:43.383Z,80.98
2018-02-18T03:31:23.869Z,80.32
2018-02-18T03:32:04.277Z,80.41
2018-02-18T03:32:44.837Z,79.85
2018-02-18T03:33:25.287Z,80.51
2018-02-18T03:34:05.716Z,80.41
2018-02-18T03:34:46.187Z,80.41
2018-02-18T03:35:26.744Z,80.41
2018-02-18T03:36:07.250Z,80.51
2018-02-18T03:36:47.552Z,80.79
2018-02-18T03:37:28.087Z,82.31
2018-02-18T03:38:08.630Z,82.31
2018-02-18T03:38:49.057Z,81.74
2018-02-18T03:39:29.498Z,82.68
2018-02-18T03:40:10.057Z,82.87
2018-02-18T03:40:50.581Z,83.15
2018-02-18T03:41:31.076Z,82.21
2018-02-18T03:42:11.366Z,83.06
2018-02-18T03:42:51.846Z,83.02
2018-02-18T03:43:32.263Z,82.54
2018-02-18T03:44:12.652Z,82.83
2018-02-18T03:44:53.105Z,83.68
2018-02-18T03:45:34.529Z,84.25
2018-02-18T03:46:15.193Z,85
2018-02-18T03:46:56.062Z,84.63
2018-02-18T03:47:36.473Z,84.06
2018-02-18T03:48:16.896Z,84.34
2018-02-18T03:48:57.323Z,84.48
2018-02-18T03:49:37.703Z,83.34
2018-02-18T03:50:18.314Z,84.2
2018-02-18T03:50:58.796Z,83.44
2018-02-18T03:51:39.314Z,83.15
2018-02-18T03:52:19.682Z,82.4
2018-02-18T03:53:00.187Z,82.68
2018-02-18T03:53:40.705Z,82.68
2018-02-18T03:54:21.221Z,82.59
2018-02-18T03:55:01.570Z,81.74
2018-02-18T03:55:42.593Z,81.93
2018-02-18T03:56:23.270Z,82.59
2018-02-18T03:57:03.948Z,82.4
2018-02-18T03:57:44.413Z,82.4
2018-02-18T03:58:25.405Z,81.55
2018-02-18T03:59:05.781Z,81.64
2018-02-18T03:59:46.449Z,81.93
2018-02-18T04:00:27.153Z,82.02
2018-02-18T04:01:07.846Z,81.45
2018-02-18T04:01:48.254Z,81.26
2018-02-18T04:02:28.899Z,82.5
2018-02-18T04:03:10.062Z,82.59
2018-02-18T04:03:50.355Z,83.15
2018-02-18T04:04:31.028Z,83.34
2018-02-18T04:05:11.638Z,82.68
2018-02-18T04:05:52.179Z,82.59
2018-02-18T04:56:27.402Z,84.2
2018-02-18T05:01:28.327Z,82.59
2018-02-18T05:02:20.805Z,82.5
2018-02-18T05:03:12.933Z,82.4
2018-02-18T05:04:05.144Z,82.12
2018-02-18T05:04:57.163Z,82.78
2018-02-18T05:05:49.419Z,82.97
2018-02-18T05:06:41.613Z,83.34
2018-02-18T05:07:34.031Z,83.63
2018-02-18T05:08:26.164Z,83.15
2018-02-18T05:09:18.290Z,82.78
2018-02-18T05:10:10.788Z,82.87
2018-02-18T05:11:03.326Z,82.02
2018-02-18T05:11:55.266Z,81.83
2018-02-18T05:12:47.392Z,81.93
2018-02-18T05:13:43.514Z,82.02
2018-02-18T05:14:36.493Z,82.59
2018-02-18T05:15:28.574Z,83.15
2018-02-18T05:16:20.854Z,82.78
2018-02-18T05:17:12.844Z,83.06
2018-02-18T05:18:04.974Z,82.5
2018-02-18T05:18:57.258Z,82.59
2018-02-18T05:19:49.613Z,82.02
2018-02-18T05:20:41.676Z,81.55
2018-02-18T05:21:33.546Z,80.6
2018-02-18T05:22:25.926Z,81.55
2018-02-18T05:23:18.638Z,81.45
2018-02-18T05:24:09.664Z,81.36
2018-02-18T05:25:02.711Z,80.6
2018-02-18T05:25:54.974Z,79.47
2018-02-18T05:26:48.160Z,78.71
2018-02-18T05:27:41.248Z,78.9
2018-02-18T05:28:33.418Z,79.47
2018-02-18T05:29:25.692Z,79.75
2018-02-18T05:30:18.003Z,78.71
2018-02-18T05:31:10.041Z,80.26
2018-02-18T05:32:02.203Z,80.22
2018-02-18T05:32:54.714Z,80.17
2018-02-18T05:33:47.030Z,79.75
2018-02-18T05:34:40.327Z,80.41
2018-02-18T05:35:27.629Z,79.66
2018-02-18T05:36:08.322Z,80.22
2018-02-18T05:36:49.403Z,80.32
2018-02-18T05:37:29.518Z,80.79
2018-02-18T05:38:10.054Z,80.69
2018-02-18T05:38:50.690Z,80.79
2018-02-18T05:39:31.430Z,80.6
2018-02-18T05:40:11.915Z,80.32
2018-02-18T05:40:52.660Z,80.51
2018-02-18T05:41:33.282Z,80.6
2018-02-18T05:42:13.772Z,81.07
2018-02-18T05:42:55.040Z,80.41
2018-02-18T05:43:35.623Z,80.98
2018-02-18T05:44:16.123Z,80.69
2018-02-18T05:44:56.624Z,80.41
2018-02-18T05:45:37.042Z,80.51
2018-02-18T05:46:17.487Z,80.69
2018-02-18T05:46:58.089Z,80.79
2018-02-18T05:47:38.657Z,80.98
2018-02-18T05:48:20.411Z,80.51
2018-02-18T05:49:01.095Z,80.32
2018-02-18T05:49:42.048Z,79.85
2018-02-18T05:50:22.591Z,79.28
2018-02-18T05:51:02.874Z,79.09
2018-02-18T05:51:43.596Z,80.51
2018-02-18T05:52:25.250Z,80.69
2018-02-18T05:53:05.812Z,79.94
2018-02-18T05:53:46.718Z,80.13
2018-02-18T05:54:28.129Z,80.04
2018-02-18T05:55:08.777Z,80.13
2018-02-18T05:55:49.756Z,80.6
2018-02-18T05:56:30.534Z,80.6
2018-02-18T05:57:11.426Z,79.85
2018-02-18T05:57:52.042Z,80.69
2018-02-18T05:58:32.624Z,81.26
2018-02-18T05:59:14.338Z,80.51
2018-02-18T05:59:55.644Z,79.28
2018-02-18T06:00:37.157Z,79.69
2018-02-18T06:01:17.946Z,78.56
2018-02-18T06:01:58.519Z,78.18
2018-02-18T06:02:39.593Z,78.27
2018-02-18T06:03:21.093Z,78.94
2018-02-18T06:04:01.636Z,78.65
2018-02-18T06:04:45.165Z,78.65
2018-02-18T06:05:26.119Z,79.13
2018-02-18T06:06:08.129Z,79.37
2018-02-18T06:06:48.651Z,79.5
2018-02-18T06:07:29.722Z,78.27
2018-02-18T06:08:10.615Z,77.39
2018-02-18T06:08:51.007Z,77.58
2018-02-18T06:09:31.598Z,78.61
2018-02-18T06:10:11.940Z,78.99
2018-02-18T06:10:52.375Z,79.09
2018-02-18T06:11:33.436Z,79.09
2018-02-18T06:12:13.438Z,78.99
2018-02-18T06:12:54.394Z,79.56
2018-02-18T06:13:34.901Z,79.75
2018-02-18T06:14:15.399Z,80.04
2018-02-18T06:14:56.035Z,79.88
2018-02-18T06:15:36.598Z,79.03
2018-02-18T06:16:17.189Z,78.99
2018-02-18T06:16:57.598Z,78.33
2018-02-18T06:17:38.243Z,78.61
2018-02-18T06:18:18.638Z,79.75
2018-02-18T06:18:59.602Z,78.52
2018-02-18T06:19:40.050Z,78.9
2018-02-18T06:20:20.769Z,79.85
2018-02-18T06:21:01.940Z,79.09
2018-02-18T06:21:42.890Z,79.09
2018-02-18T06:22:24.236Z,79.66
2018-02-18T06:23:04.938Z,78.99
2018-02-18T06:23:45.623Z,79.66
2018-02-18T06:24:27.012Z,79.66
2018-02-18T06:25:07.818Z,80.04
2018-02-18T06:25:48.673Z,79.94
2018-02-18T06:26:40.516Z,80.22
2018-02-18T06:27:21.463Z,78.9
2018-02-18T06:28:02.243Z,78.71
2018-02-18T06:28:43.804Z,78.99
2018-02-18T06:29:24.801Z,79.28
2018-02-18T06:30:07.462Z,79.28
2018-02-18T06:30:48.673Z,79.85
2018-02-18T06:31:29.573Z,80.41
2018-02-18T06:32:10.208Z,80.32
2018-02-18T06:32:51.733Z,79.94
2018-02-18T06:33:33.598Z,79.85
2018-02-18T06:34:14.359Z,79.94
2018-02-18T06:34:55.305Z,80.6
2018-02-18T06:35:36.542Z,79.85
2018-02-18T06:36:17.939Z,79.94
2018-02-18T06:37:00.053Z,80.88
2018-02-18T06:37:40.802Z,80.04
2018-02-18T06:38:22.184Z,79.75
2018-02-18T06:39:03.700Z,79.56
2018-02-18T06:39:44.293Z,80.22
2018-02-18T06:40:26.617Z,79.09
2018-02-18T06:41:07.256Z,79.18
2018-02-18T06:41:49.037Z,80.22
2018-02-18T06:42:29.706Z,80.04
2018-02-18T06:43:10.533Z,79.56
2018-02-18T06:43:52.279Z,78.9
2018-02-18T06:44:33.284Z,78.9
2018-02-18T06:45:13.854Z,79.28
2018-02-18T06:45:54.645Z,79.66
2018-02-18T06:46:37.308Z,79.18
2018-02-18T06:47:18.291Z,79.71
2018-02-18T06:47:58.487Z,80.37
2018-02-18T06:48:39.087Z,81.03
2018-02-18T06:49:19.522Z,83.02
2018-02-18T06:50:00.298Z,83.49
2018-02-18T06:50:40.349Z,83.4
2018-02-18T06:51:21.228Z,83.02
2018-02-18T06:52:03.917Z,83.3
2018-02-18T06:52:44.301Z,83.11
2018-02-18T06:53:26.027Z,82.64
2018-02-18T06:54:09.153Z,82.92
2018-02-18T06:54:49.408Z,82.35
2018-02-18T06:55:32.427Z,82.17
2018-02-18T09:17:50.469Z,49.44
2018-02-18T09:18:30.626Z,48.78
2018-02-18T09:19:11.198Z,49.23
2018-02-18T09:19:51.491Z,49.9
2018-02-18T09:20:31.945Z,50.37
2018-02-18T09:21:12.385Z,51.1
2018-02-18T09:21:52.991Z,51.01
2018-02-18T09:22:33.386Z,51.97
2018-02-18T09:23:13.827Z,51.97
2018-02-18T09:23:54.376Z,52.7
2018-02-18T09:24:34.854Z,53.36
2018-02-18T09:27:54.134Z,57.11
2018-02-18T09:29:55.412Z,56.57
2018-02-18T09:30:38.604Z,55.27
2018-02-18T09:31:20.416Z,54.32
2018-02-18T09:32:00.637Z,53.84
2018-02-18T09:32:40.861Z,53.55
2018-02-18T09:33:21.329Z,53.94
2018-02-18T09:34:02.288Z,53.55
2018-02-18T09:34:43.035Z,53.84
2018-02-18T09:35:23.582Z,53.08
2018-02-18T09:36:05.173Z,53.84
2018-02-18T09:36:45.684Z,53.91
2018-02-18T09:37:27.285Z,54.67
2018-02-18T09:38:07.610Z,55.15
2018-02-18T09:38:53.355Z,55.33
2018-02-18T09:39:35.016Z,55.52
2018-02-18T09:40:15.283Z,54.98
2018-02-18T09:40:57.797Z,54.13
2018-02-18T09:41:37.992Z,54.5
2018-02-18T09:42:18.383Z,54.03
2018-02-18T09:43:05.194Z,54.22
2018-02-18T09:43:47.432Z,54.57
2018-02-18T09:44:28.184Z,54.22
2018-02-18T09:45:08.804Z,54.19
2018-02-18T09:45:52.562Z,54.29
2018-02-18T09:46:32.767Z,54.29
2018-02-18T09:48:09.889Z,54.96
2018-02-18T09:48:50.681Z,55.15
2018-02-18T09:49:31.078Z,55.43
2018-02-18T09:50:11.533Z,55.43
2018-02-18T09:50:53.388Z,55.05
2018-02-18T09:51:35.286Z,55.43
2018-02-18T09:52:15.541Z,55.08
2018-02-18T09:52:56.368Z,54.32
2018-02-18T09:53:37.246Z,54.15
2018-02-18T09:54:18.614Z,52.63
2018-02-18T09:54:59.473Z,52.06
2018-02-18T09:55:43.117Z,51.01
2018-02-18T09:56:26.200Z,51.2
2018-02-18T09:57:07.498Z,52.06
2018-02-18T09:57:47.369Z,52.06
2018-02-18T09:58:28.099Z,51.87
2018-02-18T09:59:08.618Z,51.39
2018-02-18T09:59:52.255Z,51.01
2018-02-18T10:00:30.254Z,50.92
2018-02-18T10:01:10.863Z,50.73
2018-02-18T10:01:52.355Z,50.75
2018-02-18T10:02:33.557Z,50.27
2018-02-18T10:03:14.013Z,50.37
2018-02-18T10:03:56.811Z,50.56
2018-02-18T10:04:36.034Z,50.27
2018-02-18T10:05:16.868Z,49.63
2018-02-18T10:05:57.356Z,48.68
2018-02-18T10:06:38.499Z,48.21
2018-02-18T10:44:25.670Z,49.51
2018-02-18T10:45:09.257Z,49.51
2018-02-18T10:45:58.622Z,49.61
2018-02-18T10:47:49.683Z,49.73
2018-02-18T10:50:27.959Z,49.61
2018-02-18T10:51:19.324Z,50.46
2018-02-18T10:52:17.107Z,50.85
2018-02-18T10:54:21.331Z,51.14
2018-02-18T10:55:01.772Z,50.56
2018-02-18T10:55:42.423Z,50.56
2018-02-18T10:56:22.886Z,50.37
2018-02-18T10:57:03.246Z,50.94
2018-02-18T10:57:43.685Z,51.68
2018-02-18T10:58:24.147Z,52.15
2018-02-18T10:59:05.488Z,52.15
2018-02-18T10:59:45.849Z,52.72
2018-02-18T11:00:26.298Z,52.82
2018-02-18T11:01:06.751Z,52.53
2018-02-18T11:01:47.258Z,52.56
2018-02-18T11:02:27.602Z,52.18
2018-02-18T11:03:08.061Z,51.61
2018-02-18T11:03:48.524Z,50.87
2018-02-18T11:04:28.888Z,50.4
2018-02-18T11:05:09.277Z,50.3
2018-02-18T11:05:49.708Z,49.82
2018-02-18T11:06:30.127Z,49.47
2018-02-18T11:07:10.477Z,48.99
2018-02-18T11:07:50.894Z,48.71
2018-02-18T11:08:31.651Z,48.71
2018-02-18T11:09:11.987Z,49.37
2018-02-18T11:09:52.459Z,49.06
2018-02-18T11:10:32.867Z,49.28
2018-02-18T11:11:14.116Z,49.56
2018-02-18T11:11:54.590Z,49.37
2018-02-18T11:12:34.907Z,48.99
2018-02-18T11:13:15.329Z,49.66
2018-02-18T11:13:55.628Z,49.08
2018-02-18T11:14:36.056Z,48.73
2018-02-18T11:18:04.892Z,45.43
2018-02-18T11:18:45.465Z,44.01
2018-02-18T11:19:25.848Z,43.43
2018-02-18T11:20:09.139Z,43.55
2018-02-18T11:20:50.879Z,43.07
2018-02-18T11:21:30.217Z,43.17
2018-02-18T11:22:10.944Z,43.26
2018-02-18T11:22:53.415Z,42.67
2018-02-18T11:23:34.527Z,43.05
2018-02-18T11:24:15.477Z,43.82
2018-02-18T11:24:56.230Z,44.27
2018-02-18T11:25:37.621Z,44.58
2018-02-18T11:26:17.983Z,44.46
2018-02-18T11:26:58.290Z,44.77
2018-02-18T11:27:39.945Z,44.67
2018-02-18T11:28:24.880Z,44.1
2018-02-18T11:29:04.728Z,43.98
2018-02-18T11:29:45.312Z,45.13
2018-02-18T11:30:26.281Z,44.65
2018-02-18T11:31:07.336Z,44.94
2018-02-18T11:31:47.722Z,44.67
2018-02-18T11:32:29.145Z,44.01
2018-02-18T11:33:13.646Z,43.89
2018-02-18T11:33:54.846Z,44.08
2018-02-18T11:34:36.122Z,44.17
2018-02-18T11:35:20.426Z,44.46
2018-02-18T11:36:00.994Z,44.74
2018-02-18T11:36:41.236Z,44.67
2018-02-18T11:37:21.664Z,44.2
2018-02-18T11:38:03.041Z,43.91
2018-02-18T11:38:46.733Z,43.98
2018-02-18T11:43:06.872Z,45.13
2018-02-18T11:44:07.065Z,44.74
2018-02-18T11:44:59.471Z,44.74
2018-02-18T11:45:52.197Z,45.42
2018-02-18T11:46:44.448Z,45.42
2018-02-18T11:47:37.059Z,45.22
2018-02-18T11:48:26.744Z,45.22
2018-02-18T11:49:07.141Z,45.7
2018-02-18T11:49:47.615Z,45.22
2018-02-18T11:50:27.992Z,45.51
2018-02-18T11:51:08.472Z,45.7
2018-02-18T11:51:48.838Z,44.58
2018-02-18T11:52:29.261Z,44.84
2018-02-18T11:53:09.673Z,44.87
2018-02-18T11:53:50.188Z,43.91
2018-02-18T11:54:30.492Z,44.08
2018-02-18T11:55:10.850Z,44.65
2018-02-18T11:55:51.359Z,45.32
2018-02-18T11:56:32.697Z,45.51
2018-02-18T11:57:13.479Z,45.49
2018-02-18T11:57:59.724Z,45.39
2018-02-18T11:58:40.093Z,45.2
2018-02-18T11:59:20.552Z,46.08
2018-02-18T12:00:00.840Z,45.79
2018-02-18T12:00:41.197Z,45.61
2018-02-18T12:01:21.618Z,45.34
2018-02-18T12:02:02.034Z,44.58
2018-02-18T12:02:42.531Z,43.65
2018-02-18T12:03:22.907Z,42.97
2018-02-18T12:04:03.286Z,42.31
2018-02-18T12:04:43.685Z,42.4
2018-02-18T12:05:24.078Z,41.74
2018-02-18T12:06:04.479Z,41.74
2018-02-18T12:06:44.902Z,42.38
2018-02-18T12:07:25.263Z,43.15
2018-02-18T12:08:05.635Z,43.15
2018-02-18T12:08:52.260Z,42.96
2018-02-18T12:09:35.547Z,43.32
2018-02-18T12:10:16.339Z,42.84
2018-02-18T12:10:56.871Z,43.32
2018-02-18T12:11:47.959Z,43.6
2018-02-18T12:12:28.664Z,43.41
2018-02-18T12:13:08.971Z,43.51
2018-02-18T12:13:49.401Z,43.53
2018-02-18T12:14:29.819Z,43.24
2018-02-18T12:15:10.245Z,43.05
2018-02-18T12:15:52.817Z,43.33
2018-02-18T12:16:33.223Z,42.96
2018-02-18T12:17:13.356Z,43.24
2018-02-18T12:17:53.815Z,43.72
2018-02-18T12:18:34.227Z,43.6
2018-02-18T12:19:14.675Z,43.32
2018-02-18T12:19:55.147Z,43.51
2018-02-18T12:20:35.755Z,43.03
2018-02-18T12:21:15.996Z,43.41
2018-02-18T12:23:35.850Z,44.08
2018-02-18T12:24:26.224Z,43.89
2018-02-18T12:25:19.296Z,44.46
2018-02-18T12:26:11.354Z,44.08
2018-02-18T12:27:03.889Z,44.17
2018-02-18T12:27:59.279Z,44.17
2018-02-18T12:28:51.920Z,44.53
2018-02-18T12:30:41.907Z,45.58
2018-02-18T12:31:22.068Z,45.97
2018-02-18T12:32:07.585Z,45.58
2018-02-18T12:32:48.372Z,45.49
2018-02-18T12:33:31.067Z,45.58
2018-02-18T12:34:15.438Z,45.87
2018-02-18T12:34:57.849Z,45.97
2018-02-18T12:35:40.087Z,45.49
2018-02-18T12:36:22.574Z,44.92
2018-02-18T12:37:04.683Z,44.82
2018-02-18T12:37:46.399Z,45.1
2018-02-18T12:38:27.136Z,44.92
2018-02-18T12:39:10.892Z,43.98
2018-02-18T12:39:51.472Z,43.51
2018-02-18T12:40:32.304Z,43.22
2018-02-18T12:41:14.558Z,43.51
2018-02-18T12:41:54.965Z,42.86
2018-02-18T12:42:35.656Z,42.77
2018-02-18T12:43:23.991Z,42.19
2018-02-18T12:44:08.483Z,41.62
2018-02-18T12:45:00.476Z,42
2018-02-18T12:45:40.649Z,42.55
2018-02-18T12:46:23.049Z,42.55
2018-02-18T12:47:03.794Z,42.93
2018-02-18T12:47:46.336Z,43.03
2018-02-18T12:48:26.776Z,43.2
2018-02-18T12:49:09.338Z,43.49
2018-02-18T12:49:51.485Z,43.77
2018-02-18T12:50:33.532Z,44.99
2018-02-18T12:51:17.850Z,45.47
2018-02-18T12:51:58.185Z,45.56
2018-02-18T12:52:41.426Z,45.47
2018-02-18T12:53:25.925Z,44.63
2018-02-18T12:54:06.433Z,44.44
2018-02-18T12:54:50.622Z,44.44
2018-02-18T12:57:08.927Z,44.82
2018-02-18T12:58:01.712Z,43.87
2018-02-18T12:58:52.548Z,43.87
2018-02-18T12:59:32.328Z,44.15
2018-02-18T13:00:14.434Z,44.15
2018-02-18T13:00:54.763Z,44.32
2018-02-18T13:01:35.270Z,44.51
2018-02-18T13:02:16.609Z,44.6
2018-02-18T13:02:57.212Z,45.18
2018-02-18T13:03:42.020Z,44.53
2018-02-18T13:04:22.452Z,43.96
2018-02-18T13:05:02.822Z,43.84
2018-02-18T13:05:43.203Z,44.04
2018-02-18T13:06:23.580Z,44.13
2018-02-18T13:07:03.973Z,44.06
2018-02-18T13:07:44.393Z,43.96
2018-02-18T13:08:24.782Z,43.96
2018-02-18T13:09:05.241Z,43.1
2018-02-18T13:09:45.632Z,42.91
2018-02-18T13:10:26.014Z,43.13
2018-02-18T13:11:06.434Z,42.84
2018-02-18T13:11:46.828Z,42.65